sensor_id;sensor_type;location;lat;lon;timestamp;P1;durP1;ratioP1;P2;durP2;ratioP2
19905;SDS011;10115;50.906;4.438;2023-06-22T00:01:56;5.33;;;4.10;;
19905;SDS011;10115;50.906;4.438;2023-06-22T00:04:21;4.97;;;3.73;;
19905;SDS011;10115;50.906;4.438;2023-06-22T00:06:47;4.20;;;3.80;;
19905;SDS011;10115;50.906;4.438;2023-06-22T00:09:13;4.57;;;4.03;;
19905;SDS011;10115;50.906;4.438;2023-06-22T00:11:38;4.07;;;3.50;;
19905;SDS011;10115;50.906;4.438;2023-06-22T00:14:04;4.77;;;4.03;;
19905;SDS011;10115;50.906;4.438;2023-06-22T00:16:31;4.50;;;3.77;;
19905;SDS011;10115;50.906;4.438;2023-06-22T00:18:57;7.80;;;4.03;;
19905;SDS011;10115;50.906;4.438;2023-06-22T00:21:25;8.03;;;4.70;;
19905;SDS011;10115;50.906;4.438;2023-06-22T00:23:51;4.77;;;4.27;;
19905;SDS011;10115;50.906;4.438;2023-06-22T00:26:17;4.13;;;3.70;;
19905;SDS011;10115;50.906;4.438;2023-06-22T00:28:43;4.93;;;3.80;;
19905;SDS011;10115;50.906;4.438;2023-06-22T00:31:08;5.40;;;4.00;;
19905;SDS011;10115;50.906;4.438;2023-06-22T00:33:34;4.70;;;4.30;;
19905;SDS011;10115;50.906;4.438;2023-06-22T00:36:00;5.20;;;3.63;;
19905;SDS011;10115;50.906;4.438;2023-06-22T00:38:28;4.73;;;3.97;;
19905;SDS011;10115;50.906;4.438;2023-06-22T00:40:54;7.13;;;3.83;;
19905;SDS011;10115;50.906;4.438;2023-06-22T00:43:19;5.80;;;4.40;;
19905;SDS011;10115;50.906;4.438;2023-06-22T00:45:45;4.20;;;3.80;;
19905;SDS011;10115;50.906;4.438;2023-06-22T00:48:11;3.93;;;3.63;;
19905;SDS011;10115;50.906;4.438;2023-06-22T00:50:37;4.03;;;3.63;;
19905;SDS011;10115;50.906;4.438;2023-06-22T00:53:04;4.03;;;3.63;;
19905;SDS011;10115;50.906;4.438;2023-06-22T00:55:37;8.37;;;4.00;;
19905;SDS011;10115;50.906;4.438;2023-06-22T00:58:08;5.83;;;3.90;;
19905;SDS011;10115;50.906;4.438;2023-06-22T01:00:35;6.47;;;3.70;;
19905;SDS011;10115;50.906;4.438;2023-06-22T01:03:02;6.20;;;4.03;;
19905;SDS011;10115;50.906;4.438;2023-06-22T01:05:29;3.90;;;3.60;;
19905;SDS011;10115;50.906;4.438;2023-06-22T01:13:26;8.50;;;3.77;;
19905;SDS011;10115;50.906;4.438;2023-06-22T01:15:55;4.47;;;3.83;;
19905;SDS011;10115;50.906;4.438;2023-06-22T01:18:26;5.23;;;3.30;;
19905;SDS011;10115;50.906;4.438;2023-06-22T01:20:55;5.10;;;3.87;;
19905;SDS011;10115;50.906;4.438;2023-06-22T01:26:14;4.40;;;4.00;;
19905;SDS011;10115;50.906;4.438;2023-06-22T01:28:50;4.03;;;3.73;;
19905;SDS011;10115;50.906;4.438;2023-06-22T01:31:22;5.33;;;3.57;;
19905;SDS011;10115;50.906;4.438;2023-06-22T01:33:59;4.50;;;4.10;;
19905;SDS011;10115;50.906;4.438;2023-06-22T01:36:27;5.63;;;3.13;;
19905;SDS011;10115;50.906;4.438;2023-06-22T01:38:53;9.80;;;4.70;;
19905;SDS011;10115;50.906;4.438;2023-06-22T01:41:20;4.27;;;3.87;;
19905;SDS011;10115;50.906;4.438;2023-06-22T01:43:46;3.87;;;3.43;;
19905;SDS011;10115;50.906;4.438;2023-06-22T01:46:13;5.33;;;4.20;;
19905;SDS011;10115;50.906;4.438;2023-06-22T01:48:40;5.50;;;4.30;;
19905;SDS011;10115;50.906;4.438;2023-06-22T01:51:06;4.40;;;4.00;;
19905;SDS011;10115;50.906;4.438;2023-06-22T01:53:32;4.63;;;4.23;;
19905;SDS011;10115;50.906;4.438;2023-06-22T01:55:58;4.57;;;3.90;;
19905;SDS011;10115;50.906;4.438;2023-06-22T01:58:25;4.17;;;3.53;;
19905;SDS011;10115;50.906;4.438;2023-06-22T02:01:14;4.00;;;3.60;;
19905;SDS011;10115;50.906;4.438;2023-06-22T02:04:13;6.57;;;3.73;;
19905;SDS011;10115;50.906;4.438;2023-06-22T02:06:36;6.00;;;3.90;;
19905;SDS011;10115;50.906;4.438;2023-06-22T02:09:15;5.23;;;4.57;;
19905;SDS011;10115;50.906;4.438;2023-06-22T02:11:44;4.63;;;4.10;;
19905;SDS011;10115;50.906;4.438;2023-06-22T02:14:12;5.03;;;4.03;;
19905;SDS011;10115;50.906;4.438;2023-06-22T02:16:38;6.57;;;3.80;;
19905;SDS011;10115;50.906;4.438;2023-06-22T02:19:05;4.43;;;4.00;;
19905;SDS011;10115;50.906;4.438;2023-06-22T02:21:31;5.27;;;3.77;;
19905;SDS011;10115;50.906;4.438;2023-06-22T02:23:58;4.67;;;3.53;;
19905;SDS011;10115;50.906;4.438;2023-06-22T02:26:25;11.50;;;4.03;;
19905;SDS011;10115;50.906;4.438;2023-06-22T02:28:51;4.10;;;3.70;;
19905;SDS011;10115;50.906;4.438;2023-06-22T02:31:17;3.93;;;3.63;;
19905;SDS011;10115;50.906;4.438;2023-06-22T02:33:44;6.40;;;3.93;;
19905;SDS011;10115;50.906;4.438;2023-06-22T02:36:10;4.50;;;4.10;;
19905;SDS011;10115;50.906;4.438;2023-06-22T02:38:38;5.00;;;4.07;;
19905;SDS011;10115;50.906;4.438;2023-06-22T02:41:13;4.33;;;3.93;;
19905;SDS011;10115;50.906;4.438;2023-06-22T02:43:43;4.50;;;4.10;;
19905;SDS011;10115;50.906;4.438;2023-06-22T02:46:12;8.87;;;3.87;;
19905;SDS011;10115;50.906;4.438;2023-06-22T02:48:41;7.90;;;4.40;;
19905;SDS011;10115;50.906;4.438;2023-06-22T02:51:07;3.67;;;3.33;;
19905;SDS011;10115;50.906;4.438;2023-06-22T02:53:33;5.73;;;4.00;;
19905;SDS011;10115;50.906;4.438;2023-06-22T02:56:00;4.50;;;4.10;;
19905;SDS011;10115;50.906;4.438;2023-06-22T02:58:30;8.73;;;4.33;;
19905;SDS011;10115;50.906;4.438;2023-06-22T03:00:58;6.77;;;4.40;;
19905;SDS011;10115;50.906;4.438;2023-06-22T03:03:29;4.07;;;3.67;;
19905;SDS011;10115;50.906;4.438;2023-06-22T03:05:55;5.27;;;4.10;;
19905;SDS011;10115;50.906;4.438;2023-06-22T03:08:20;5.17;;;4.60;;
19905;SDS011;10115;50.906;4.438;2023-06-22T03:10:46;5.83;;;4.20;;
19905;SDS011;10115;50.906;4.438;2023-06-22T03:13:12;6.87;;;4.57;;
19905;SDS011;10115;50.906;4.438;2023-06-22T03:15:37;6.60;;;4.53;;
19905;SDS011;10115;50.906;4.438;2023-06-22T03:18:03;5.17;;;4.67;;
19905;SDS011;10115;50.906;4.438;2023-06-22T03:20:29;4.50;;;4.10;;
19905;SDS011;10115;50.906;4.438;2023-06-22T03:22:58;4.60;;;4.20;;
19905;SDS011;10115;50.906;4.438;2023-06-22T03:25:24;8.17;;;4.10;;
19905;SDS011;10115;50.906;4.438;2023-06-22T03:27:50;5.10;;;4.57;;
19905;SDS011;10115;50.906;4.438;2023-06-22T03:30:15;6.40;;;4.70;;
19905;SDS011;10115;50.906;4.438;2023-06-22T03:32:41;4.83;;;4.10;;
19905;SDS011;10115;50.906;4.438;2023-06-22T03:35:08;6.23;;;4.47;;
19905;SDS011;10115;50.906;4.438;2023-06-22T03:37:34;10.97;;;4.67;;
19905;SDS011;10115;50.906;4.438;2023-06-22T03:40:00;7.87;;;5.07;;
19905;SDS011;10115;50.906;4.438;2023-06-22T03:42:25;8.67;;;5.23;;
19905;SDS011;10115;50.906;4.438;2023-06-22T03:44:51;7.90;;;4.30;;
19905;SDS011;10115;50.906;4.438;2023-06-22T03:47:17;9.57;;;4.70;;
19905;SDS011;10115;50.906;4.438;2023-06-22T03:49:43;6.70;;;4.70;;
19905;SDS011;10115;50.906;4.438;2023-06-22T03:52:08;4.00;;;3.70;;
19905;SDS011;10115;50.906;4.438;2023-06-22T03:54:35;8.57;;;4.90;;
19905;SDS011;10115;50.906;4.438;2023-06-22T03:57:01;6.33;;;5.20;;
19905;SDS011;10115;50.906;4.438;2023-06-22T03:59:27;6.57;;;4.63;;
19905;SDS011;10115;50.906;4.438;2023-06-22T04:01:53;6.10;;;5.27;;
19905;SDS011;10115;50.906;4.438;2023-06-22T04:04:19;9.47;;;5.67;;
19905;SDS011;10115;50.906;4.438;2023-06-22T04:06:45;7.87;;;5.37;;
19905;SDS011;10115;50.906;4.438;2023-06-22T04:09:11;5.93;;;5.33;;
19905;SDS011;10115;50.906;4.438;2023-06-22T04:11:37;6.73;;;5.23;;
19905;SDS011;10115;50.906;4.438;2023-06-22T04:14:02;6.33;;;5.47;;
19905;SDS011;10115;50.906;4.438;2023-06-22T04:16:28;6.67;;;4.93;;
19905;SDS011;10115;50.906;4.438;2023-06-22T04:18:54;7.30;;;5.60;;
19905;SDS011;10115;50.906;4.438;2023-06-22T04:21:19;10.13;;;6.90;;
19905;SDS011;10115;50.906;4.438;2023-06-22T04:23:46;6.67;;;5.50;;
19905;SDS011;10115;50.906;4.438;2023-06-22T04:26:12;6.47;;;5.43;;
19905;SDS011;10115;50.906;4.438;2023-06-22T04:28:39;5.90;;;5.20;;
19905;SDS011;10115;50.906;4.438;2023-06-22T04:31:05;6.70;;;5.30;;
19905;SDS011;10115;50.906;4.438;2023-06-22T04:33:31;7.77;;;5.90;;
19905;SDS011;10115;50.906;4.438;2023-06-22T04:35:57;8.23;;;5.53;;
19905;SDS011;10115;50.906;4.438;2023-06-22T04:38:23;8.43;;;5.43;;
19905;SDS011;10115;50.906;4.438;2023-06-22T04:40:50;7.97;;;6.10;;
19905;SDS011;10115;50.906;4.438;2023-06-22T04:43:16;11.70;;;6.00;;
19905;SDS011;10115;50.906;4.438;2023-06-22T04:45:41;7.87;;;5.87;;
19905;SDS011;10115;50.906;4.438;2023-06-22T04:48:07;7.93;;;6.30;;
19905;SDS011;10115;50.906;4.438;2023-06-22T04:50:41;6.43;;;5.10;;
19905;SDS011;10115;50.906;4.438;2023-06-22T04:53:07;9.93;;;6.93;;
19905;SDS011;10115;50.906;4.438;2023-06-22T04:55:34;9.23;;;6.97;;
19905;SDS011;10115;50.906;4.438;2023-06-22T04:58:02;8.07;;;6.33;;
19905;SDS011;10115;50.906;4.438;2023-06-22T05:00:29;9.00;;;5.87;;
19905;SDS011;10115;50.906;4.438;2023-06-22T05:02:55;7.70;;;6.13;;
19905;SDS011;10115;50.906;4.438;2023-06-22T05:05:22;7.50;;;6.00;;
19905;SDS011;10115;50.906;4.438;2023-06-22T05:07:49;8.33;;;6.10;;
19905;SDS011;10115;50.906;4.438;2023-06-22T05:10:18;8.20;;;5.70;;
19905;SDS011;10115;50.906;4.438;2023-06-22T05:12:44;9.33;;;6.27;;
19905;SDS011;10115;50.906;4.438;2023-06-22T05:15:11;7.20;;;6.47;;
19905;SDS011;10115;50.906;4.438;2023-06-22T05:17:37;7.83;;;6.00;;
19905;SDS011;10115;50.906;4.438;2023-06-22T05:20:08;12.60;;;7.10;;
19905;SDS011;10115;50.906;4.438;2023-06-22T05:22:37;13.10;;;7.43;;
19905;SDS011;10115;50.906;4.438;2023-06-22T05:25:07;8.27;;;5.80;;
19905;SDS011;10115;50.906;4.438;2023-06-22T05:27:34;9.97;;;6.27;;
19905;SDS011;10115;50.906;4.438;2023-06-22T05:30:04;10.53;;;6.53;;
19905;SDS011;10115;50.906;4.438;2023-06-22T05:32:34;7.87;;;5.97;;
19905;SDS011;10115;50.906;4.438;2023-06-22T05:35:00;10.53;;;6.47;;
19905;SDS011;10115;50.906;4.438;2023-06-22T05:37:26;10.50;;;6.67;;
19905;SDS011;10115;50.906;4.438;2023-06-22T05:39:51;8.57;;;6.60;;
19905;SDS011;10115;50.906;4.438;2023-06-22T05:42:17;8.53;;;7.17;;
19905;SDS011;10115;50.906;4.438;2023-06-22T05:44:43;8.80;;;6.57;;
19905;SDS011;10115;50.906;4.438;2023-06-22T05:47:08;8.87;;;7.30;;
19905;SDS011;10115;50.906;4.438;2023-06-22T05:49:34;14.63;;;6.67;;
19905;SDS011;10115;50.906;4.438;2023-06-22T05:52:00;11.43;;;6.50;;
19905;SDS011;10115;50.906;4.438;2023-06-22T05:54:27;10.20;;;6.60;;
19905;SDS011;10115;50.906;4.438;2023-06-22T05:56:53;7.57;;;6.57;;
19905;SDS011;10115;50.906;4.438;2023-06-22T05:59:19;7.33;;;6.43;;
19905;SDS011;10115;50.906;4.438;2023-06-22T06:01:45;9.20;;;7.00;;
19905;SDS011;10115;50.906;4.438;2023-06-22T06:04:14;10.47;;;7.03;;
19905;SDS011;10115;50.906;4.438;2023-06-22T06:06:41;11.07;;;6.57;;
19905;SDS011;10115;50.906;4.438;2023-06-22T06:09:07;9.33;;;6.20;;
19905;SDS011;10115;50.906;4.438;2023-06-22T06:11:32;8.57;;;6.10;;
19905;SDS011;10115;50.906;4.438;2023-06-22T06:13:58;9.30;;;7.37;;
19905;SDS011;10115;50.906;4.438;2023-06-22T06:16:24;9.83;;;6.57;;
19905;SDS011;10115;50.906;4.438;2023-06-22T06:18:50;7.67;;;6.80;;
19905;SDS011;10115;50.906;4.438;2023-06-22T06:21:16;9.93;;;7.33;;
19905;SDS011;10115;50.906;4.438;2023-06-22T06:23:42;11.17;;;7.30;;
19905;SDS011;10115;50.906;4.438;2023-06-22T06:26:08;10.90;;;6.97;;
19905;SDS011;10115;50.906;4.438;2023-06-22T06:28:34;9.47;;;7.33;;
19905;SDS011;10115;50.906;4.438;2023-06-22T06:31:00;8.93;;;6.50;;
19905;SDS011;10115;50.906;4.438;2023-06-22T06:33:25;9.37;;;7.00;;
19905;SDS011;10115;50.906;4.438;2023-06-22T06:35:51;11.63;;;6.97;;
19905;SDS011;10115;50.906;4.438;2023-06-22T06:38:17;13.30;;;7.63;;
19905;SDS011;10115;50.906;4.438;2023-06-22T06:40:42;10.27;;;7.37;;
19905;SDS011;10115;50.906;4.438;2023-06-22T06:43:10;11.17;;;7.13;;
19905;SDS011;10115;50.906;4.438;2023-06-22T06:45:35;11.77;;;8.20;;
19905;SDS011;10115;50.906;4.438;2023-06-22T06:48:01;10.23;;;6.90;;
19905;SDS011;10115;50.906;4.438;2023-06-22T06:50:27;11.50;;;8.43;;
19905;SDS011;10115;50.906;4.438;2023-06-22T06:52:53;9.30;;;7.33;;
19905;SDS011;10115;50.906;4.438;2023-06-22T06:55:19;11.87;;;7.83;;
19905;SDS011;10115;50.906;4.438;2023-06-22T06:57:45;9.33;;;7.77;;
19905;SDS011;10115;50.906;4.438;2023-06-22T07:00:13;8.73;;;7.20;;
19905;SDS011;10115;50.906;4.438;2023-06-22T07:02:41;10.43;;;7.53;;
19905;SDS011;10115;50.906;4.438;2023-06-22T07:05:08;11.00;;;7.77;;
19905;SDS011;10115;50.906;4.438;2023-06-22T07:07:35;8.50;;;6.63;;
19905;SDS011;10115;50.906;4.438;2023-06-22T07:10:01;11.00;;;8.37;;
19905;SDS011;10115;50.906;4.438;2023-06-22T07:12:28;12.50;;;7.53;;
19905;SDS011;10115;50.906;4.438;2023-06-22T07:14:53;16.83;;;8.00;;
19905;SDS011;10115;50.906;4.438;2023-06-22T07:17:25;11.70;;;7.90;;
19905;SDS011;10115;50.906;4.438;2023-06-22T07:19:51;8.47;;;7.57;;
19905;SDS011;10115;50.906;4.438;2023-06-22T07:22:16;9.13;;;7.63;;
19905;SDS011;10115;50.906;4.438;2023-06-22T07:24:42;12.53;;;7.63;;
19905;SDS011;10115;50.906;4.438;2023-06-22T07:27:08;16.87;;;8.87;;
19905;SDS011;10115;50.906;4.438;2023-06-22T07:29:36;14.07;;;7.07;;
19905;SDS011;10115;50.906;4.438;2023-06-22T07:32:02;14.40;;;8.90;;
19905;SDS011;10115;50.906;4.438;2023-06-22T07:34:30;13.40;;;8.40;;
19905;SDS011;10115;50.906;4.438;2023-06-22T07:36:55;11.93;;;7.90;;
19905;SDS011;10115;50.906;4.438;2023-06-22T07:39:21;11.60;;;8.60;;
19905;SDS011;10115;50.906;4.438;2023-06-22T07:41:50;9.90;;;7.37;;
19905;SDS011;10115;50.906;4.438;2023-06-22T07:44:16;15.17;;;7.93;;
19905;SDS011;10115;50.906;4.438;2023-06-22T07:46:42;15.37;;;8.43;;
19905;SDS011;10115;50.906;4.438;2023-06-22T07:49:08;10.83;;;8.43;;
19905;SDS011;10115;50.906;4.438;2023-06-22T07:51:34;9.73;;;8.30;;
19905;SDS011;10115;50.906;4.438;2023-06-22T07:53:59;12.37;;;7.87;;
19905;SDS011;10115;50.906;4.438;2023-06-22T07:56:25;13.70;;;7.67;;
19905;SDS011;10115;50.906;4.438;2023-06-22T07:58:51;13.50;;;8.47;;
19905;SDS011;10115;50.906;4.438;2023-06-22T08:01:18;13.30;;;7.53;;
19905;SDS011;10115;50.906;4.438;2023-06-22T08:03:46;10.47;;;7.53;;
19905;SDS011;10115;50.906;4.438;2023-06-22T08:06:13;12.17;;;8.43;;
19905;SDS011;10115;50.906;4.438;2023-06-22T08:08:39;11.83;;;7.90;;
19905;SDS011;10115;50.906;4.438;2023-06-22T08:11:05;13.63;;;8.27;;
19905;SDS011;10115;50.906;4.438;2023-06-22T08:13:30;12.37;;;8.60;;
19905;SDS011;10115;50.906;4.438;2023-06-22T08:15:56;9.33;;;7.20;;
19905;SDS011;10115;50.906;4.438;2023-06-22T08:18:22;11.57;;;8.40;;
19905;SDS011;10115;50.906;4.438;2023-06-22T08:20:48;9.47;;;7.80;;
19905;SDS011;10115;50.906;4.438;2023-06-22T08:23:14;10.20;;;7.83;;
19905;SDS011;10115;50.906;4.438;2023-06-22T08:25:40;9.87;;;7.60;;
19905;SDS011;10115;50.906;4.438;2023-06-22T08:28:05;9.37;;;7.80;;
19905;SDS011;10115;50.906;4.438;2023-06-22T08:30:32;13.03;;;8.20;;
19905;SDS011;10115;50.906;4.438;2023-06-22T08:32:57;12.60;;;8.57;;
19905;SDS011;10115;50.906;4.438;2023-06-22T08:35:23;9.60;;;7.97;;
19905;SDS011;10115;50.906;4.438;2023-06-22T08:37:49;10.30;;;8.20;;
19905;SDS011;10115;50.906;4.438;2023-06-22T08:40:17;13.43;;;9.17;;
19905;SDS011;10115;50.906;4.438;2023-06-22T08:42:44;12.27;;;8.20;;
19905;SDS011;10115;50.906;4.438;2023-06-22T08:45:11;13.37;;;8.27;;
19905;SDS011;10115;50.906;4.438;2023-06-22T08:47:37;9.37;;;8.07;;
19905;SDS011;10115;50.906;4.438;2023-06-22T08:50:04;11.30;;;7.30;;
19905;SDS011;10115;50.906;4.438;2023-06-22T08:52:31;10.20;;;7.80;;
19905;SDS011;10115;50.906;4.438;2023-06-22T08:54:57;11.60;;;7.57;;
19905;SDS011;10115;50.906;4.438;2023-06-22T08:57:25;12.83;;;8.50;;
19905;SDS011;10115;50.906;4.438;2023-06-22T08:59:55;10.93;;;7.33;;
19905;SDS011;10115;50.906;4.438;2023-06-22T09:02:23;15.77;;;8.03;;
19905;SDS011;10115;50.906;4.438;2023-06-22T09:04:55;13.13;;;8.80;;
19905;SDS011;10115;50.906;4.438;2023-06-22T09:07:24;10.97;;;8.10;;
19905;SDS011;10115;50.906;4.438;2023-06-22T09:09:51;9.73;;;8.13;;
19905;SDS011;10115;50.906;4.438;2023-06-22T09:12:20;11.37;;;6.80;;
19905;SDS011;10115;50.906;4.438;2023-06-22T09:14:50;12.10;;;9.07;;
19905;SDS011;10115;50.906;4.438;2023-06-22T09:17:16;12.97;;;8.33;;
19905;SDS011;10115;50.906;4.438;2023-06-22T09:19:42;13.70;;;8.73;;
19905;SDS011;10115;50.906;4.438;2023-06-22T09:22:08;9.60;;;7.77;;
19905;SDS011;10115;50.906;4.438;2023-06-22T09:24:33;9.73;;;8.03;;
19905;SDS011;10115;50.906;4.438;2023-06-22T09:26:59;14.37;;;8.97;;
19905;SDS011;10115;50.906;4.438;2023-06-22T09:29:25;9.57;;;7.67;;
19905;SDS011;10115;50.906;4.438;2023-06-22T09:31:51;10.03;;;8.83;;
19905;SDS011;10115;50.906;4.438;2023-06-22T09:34:18;11.33;;;7.83;;
19905;SDS011;10115;50.906;4.438;2023-06-22T09:36:45;11.87;;;8.43;;
19905;SDS011;10115;50.906;4.438;2023-06-22T09:39:11;10.93;;;7.77;;
19905;SDS011;10115;50.906;4.438;2023-06-22T09:41:37;11.60;;;7.83;;
19905;SDS011;10115;50.906;4.438;2023-06-22T09:44:03;9.77;;;7.07;;
19905;SDS011;10115;50.906;4.438;2023-06-22T09:46:28;12.27;;;8.67;;
19905;SDS011;10115;50.906;4.438;2023-06-22T09:48:54;19.83;;;9.83;;
19905;SDS011;10115;50.906;4.438;2023-06-22T09:51:20;11.53;;;7.43;;
19905;SDS011;10115;50.906;4.438;2023-06-22T09:53:46;12.43;;;8.23;;
19905;SDS011;10115;50.906;4.438;2023-06-22T09:56:12;9.43;;;7.63;;
19905;SDS011;10115;50.906;4.438;2023-06-22T09:58:43;18.93;;;9.10;;
19905;SDS011;10115;50.906;4.438;2023-06-22T10:01:10;11.77;;;8.30;;
19905;SDS011;10115;50.906;4.438;2023-06-22T10:03:36;10.27;;;8.17;;
19905;SDS011;10115;50.906;4.438;2023-06-22T10:06:02;11.10;;;8.27;;
19905;SDS011;10115;50.906;4.438;2023-06-22T10:08:28;11.17;;;8.63;;
19905;SDS011;10115;50.906;4.438;2023-06-22T10:10:54;11.67;;;8.33;;
19905;SDS011;10115;50.906;4.438;2023-06-22T10:13:19;11.63;;;8.40;;
19905;SDS011;10115;50.906;4.438;2023-06-22T10:15:45;14.27;;;8.83;;
19905;SDS011;10115;50.906;4.438;2023-06-22T10:18:15;13.70;;;8.53;;
19905;SDS011;10115;50.906;4.438;2023-06-22T10:20:41;13.93;;;8.30;;
19905;SDS011;10115;50.906;4.438;2023-06-22T10:23:07;15.43;;;8.30;;
19905;SDS011;10115;50.906;4.438;2023-06-22T10:25:32;11.03;;;8.73;;
19905;SDS011;10115;50.906;4.438;2023-06-22T10:27:58;10.57;;;7.90;;
19905;SDS011;10115;50.906;4.438;2023-06-22T10:30:24;13.10;;;8.20;;
19905;SDS011;10115;50.906;4.438;2023-06-22T10:32:50;17.70;;;10.40;;
19905;SDS011;10115;50.906;4.438;2023-06-22T10:35:15;10.77;;;8.63;;
19905;SDS011;10115;50.906;4.438;2023-06-22T10:37:44;10.57;;;7.87;;
19905;SDS011;10115;50.906;4.438;2023-06-22T10:40:12;10.00;;;8.90;;
19905;SDS011;10115;50.906;4.438;2023-06-22T10:42:38;10.10;;;8.73;;
19905;SDS011;10115;50.906;4.438;2023-06-22T10:45:04;15.40;;;9.27;;
19905;SDS011;10115;50.906;4.438;2023-06-22T10:47:30;16.73;;;9.93;;
19905;SDS011;10115;50.906;4.438;2023-06-22T10:49:56;14.13;;;9.83;;
19905;SDS011;10115;50.906;4.438;2023-06-22T10:52:22;12.93;;;9.40;;
19905;SDS011;10115;50.906;4.438;2023-06-22T10:54:47;15.30;;;10.27;;
19905;SDS011;10115;50.906;4.438;2023-06-22T10:57:13;12.93;;;10.10;;
19905;SDS011;10115;50.906;4.438;2023-06-22T10:59:39;11.80;;;8.50;;
19905;SDS011;10115;50.906;4.438;2023-06-22T11:02:05;16.80;;;10.10;;
19905;SDS011;10115;50.906;4.438;2023-06-22T11:04:30;13.43;;;10.77;;
19905;SDS011;10115;50.906;4.438;2023-06-22T11:06:56;12.33;;;9.60;;
19905;SDS011;10115;50.906;4.438;2023-06-22T11:09:22;12.07;;;8.90;;
19905;SDS011;10115;50.906;4.438;2023-06-22T11:11:47;14.87;;;9.83;;
19905;SDS011;10115;50.906;4.438;2023-06-22T11:14:14;15.00;;;8.87;;
19905;SDS011;10115;50.906;4.438;2023-06-22T11:16:40;14.13;;;10.07;;
19905;SDS011;10115;50.906;4.438;2023-06-22T11:19:06;19.70;;;11.20;;
19905;SDS011;10115;50.906;4.438;2023-06-22T11:21:32;17.03;;;11.97;;
19905;SDS011;10115;50.906;4.438;2023-06-22T11:23:58;15.43;;;11.17;;
19905;SDS011;10115;50.906;4.438;2023-06-22T11:26:24;15.43;;;11.80;;
19905;SDS011;10115;50.906;4.438;2023-06-22T11:28:52;19.50;;;10.57;;
19905;SDS011;10115;50.906;4.438;2023-06-22T11:31:18;13.43;;;10.33;;
19905;SDS011;10115;50.906;4.438;2023-06-22T11:33:43;18.27;;;12.13;;
19905;SDS011;10115;50.906;4.438;2023-06-22T11:36:13;14.93;;;10.03;;
19905;SDS011;10115;50.906;4.438;2023-06-22T11:38:39;15.50;;;10.97;;
19905;SDS011;10115;50.906;4.438;2023-06-22T11:41:05;10.93;;;9.00;;
19905;SDS011;10115;50.906;4.438;2023-06-22T11:43:31;15.00;;;10.93;;
19905;SDS011;10115;50.906;4.438;2023-06-22T11:45:57;16.13;;;11.83;;
19905;SDS011;10115;50.906;4.438;2023-06-22T11:48:26;14.50;;;10.03;;
19905;SDS011;10115;50.906;4.438;2023-06-22T11:50:51;10.67;;;8.37;;
19905;SDS011;10115;50.906;4.438;2023-06-22T11:53:17;16.40;;;11.27;;
19905;SDS011;10115;50.906;4.438;2023-06-22T11:55:43;14.93;;;10.97;;
19905;SDS011;10115;50.906;4.438;2023-06-22T11:58:09;18.80;;;11.10;;
19905;SDS011;10115;50.906;4.438;2023-06-22T12:00:36;14.73;;;10.17;;
19905;SDS011;10115;50.906;4.438;2023-06-22T12:03:02;21.47;;;11.90;;
19905;SDS011;10115;50.906;4.438;2023-06-22T12:05:28;17.03;;;12.77;;
19905;SDS011;10115;50.906;4.438;2023-06-22T12:07:54;16.23;;;11.83;;
19905;SDS011;10115;50.906;4.438;2023-06-22T12:10:20;14.77;;;10.97;;
19905;SDS011;10115;50.906;4.438;2023-06-22T12:12:47;17.90;;;11.20;;
19905;SDS011;10115;50.906;4.438;2023-06-22T12:15:12;15.50;;;10.57;;
19905;SDS011;10115;50.906;4.438;2023-06-22T12:17:38;15.50;;;11.03;;
19905;SDS011;10115;50.906;4.438;2023-06-22T12:20:05;15.07;;;10.60;;
19905;SDS011;10115;50.906;4.438;2023-06-22T12:22:32;16.73;;;11.77;;
19905;SDS011;10115;50.906;4.438;2023-06-22T12:24:57;12.63;;;10.40;;
19905;SDS011;10115;50.906;4.438;2023-06-22T12:27:23;16.00;;;11.23;;
19905;SDS011;10115;50.906;4.438;2023-06-22T12:29:49;13.03;;;10.70;;
19905;SDS011;10115;50.906;4.438;2023-06-22T12:32:15;16.00;;;11.30;;
19905;SDS011;10115;50.906;4.438;2023-06-22T12:34:44;16.67;;;12.00;;
19905;SDS011;10115;50.906;4.438;2023-06-22T12:37:10;16.20;;;12.23;;
19905;SDS011;10115;50.906;4.438;2023-06-22T12:39:36;16.10;;;12.27;;
19905;SDS011;10115;50.906;4.438;2023-06-22T12:42:01;16.43;;;11.53;;
19905;SDS011;10115;50.906;4.438;2023-06-22T12:44:27;16.70;;;13.07;;
19905;SDS011;10115;50.906;4.438;2023-06-22T12:46:53;17.97;;;12.57;;
19905;SDS011;10115;50.906;4.438;2023-06-22T12:49:19;16.27;;;10.23;;
19905;SDS011;10115;50.906;4.438;2023-06-22T12:51:44;20.10;;;13.57;;
19905;SDS011;10115;50.906;4.438;2023-06-22T12:54:10;19.50;;;13.63;;
19905;SDS011;10115;50.906;4.438;2023-06-22T12:56:37;18.03;;;13.13;;
19905;SDS011;10115;50.906;4.438;2023-06-22T12:59:06;18.13;;;11.60;;
19905;SDS011;10115;50.906;4.438;2023-06-22T13:01:31;18.90;;;14.10;;
19905;SDS011;10115;50.906;4.438;2023-06-22T13:03:57;21.47;;;12.93;;
19905;SDS011;10115;50.906;4.438;2023-06-22T13:06:24;17.77;;;12.60;;
19905;SDS011;10115;50.906;4.438;2023-06-22T13:08:50;23.73;;;13.57;;
19905;SDS011;10115;50.906;4.438;2023-06-22T13:11:15;21.40;;;15.20;;
19905;SDS011;10115;50.906;4.438;2023-06-22T13:13:41;14.53;;;12.50;;
19905;SDS011;10115;50.906;4.438;2023-06-22T13:16:07;23.73;;;12.40;;
19905;SDS011;10115;50.906;4.438;2023-06-22T13:18:33;22.70;;;14.00;;
19905;SDS011;10115;50.906;4.438;2023-06-22T13:21:00;17.37;;;14.53;;
19905;SDS011;10115;50.906;4.438;2023-06-22T13:23:27;21.60;;;13.87;;
19905;SDS011;10115;50.906;4.438;2023-06-22T13:25:52;20.23;;;13.70;;
19905;SDS011;10115;50.906;4.438;2023-06-22T13:28:18;18.47;;;13.43;;
19905;SDS011;10115;50.906;4.438;2023-06-22T13:30:45;21.47;;;11.83;;
19905;SDS011;10115;50.906;4.438;2023-06-22T13:33:12;18.43;;;11.23;;
19905;SDS011;10115;50.906;4.438;2023-06-22T13:35:41;18.80;;;13.37;;
19905;SDS011;10115;50.906;4.438;2023-06-22T13:38:10;18.43;;;12.10;;
19905;SDS011;10115;50.906;4.438;2023-06-22T13:40:37;17.57;;;11.83;;
19905;SDS011;10115;50.906;4.438;2023-06-22T13:43:03;19.50;;;12.73;;
19905;SDS011;10115;50.906;4.438;2023-06-22T13:45:30;18.70;;;12.73;;
19905;SDS011;10115;50.906;4.438;2023-06-22T13:47:56;17.10;;;11.47;;
19905;SDS011;10115;50.906;4.438;2023-06-22T13:50:21;16.93;;;11.93;;
19905;SDS011;10115;50.906;4.438;2023-06-22T13:52:47;21.07;;;12.73;;
19905;SDS011;10115;50.906;4.438;2023-06-22T13:55:13;15.13;;;10.97;;
19905;SDS011;10115;50.906;4.438;2023-06-22T13:57:39;18.87;;;13.27;;
19905;SDS011;10115;50.906;4.438;2023-06-22T14:00:06;13.80;;;11.63;;
19905;SDS011;10115;50.906;4.438;2023-06-22T14:02:33;27.07;;;14.33;;
19905;SDS011;10115;50.906;4.438;2023-06-22T14:04:59;17.80;;;12.67;;
19905;SDS011;10115;50.906;4.438;2023-06-22T14:07:25;10.27;;;6.97;;
19905;SDS011;10115;50.906;4.438;2023-06-22T14:09:51;17.50;;;12.40;;
19905;SDS011;10115;50.906;4.438;2023-06-22T14:12:17;17.10;;;12.83;;
19905;SDS011;10115;50.906;4.438;2023-06-22T14:14:45;15.93;;;11.77;;
19905;SDS011;10115;50.906;4.438;2023-06-22T14:17:11;17.00;;;11.93;;
19905;SDS011;10115;50.906;4.438;2023-06-22T14:19:37;19.03;;;14.20;;
19905;SDS011;10115;50.906;4.438;2023-06-22T14:22:03;18.70;;;12.90;;
19905;SDS011;10115;50.906;4.438;2023-06-22T14:24:29;18.77;;;13.23;;
19905;SDS011;10115;50.906;4.438;2023-06-22T14:26:54;16.73;;;10.97;;
19905;SDS011;10115;50.906;4.438;2023-06-22T14:29:21;16.87;;;11.57;;
19905;SDS011;10115;50.906;4.438;2023-06-22T14:31:47;22.17;;;14.17;;
19905;SDS011;10115;50.906;4.438;2023-06-22T14:34:13;19.87;;;13.33;;
19905;SDS011;10115;50.906;4.438;2023-06-22T14:36:39;21.70;;;14.80;;
19905;SDS011;10115;50.906;4.438;2023-06-22T14:39:05;33.00;;;16.27;;
19905;SDS011;10115;50.906;4.438;2023-06-22T14:41:31;23.00;;;16.13;;
19905;SDS011;10115;50.906;4.438;2023-06-22T14:43:57;25.00;;;15.93;;